createdAt,value
2022-08-31T03:34:02.066Z,0
2022-08-31T03:39:03.952Z,0
2022-08-31T03:44:05.799Z,0
2022-08-31T03:49:07.527Z,0
2022-08-31T03:54:09.167Z,0
2022-08-31T03:59:10.863Z,0
2022-08-31T04:04:12.864Z,0
2022-08-31T04:09:14.557Z,0
2022-08-31T04:14:16.604Z,0
2022-08-31T04:19:18.283Z,0
2022-08-31T04:24:19.944Z,0
2022-08-31T04:29:21.705Z,0
2022-08-31T04:34:23.735Z,0
2022-08-31T04:39:25.597Z,0
2022-08-31T04:44:27.324Z,0
2022-08-31T04:49:29.241Z,0
2022-08-31T04:54:30.907Z,0
2022-08-31T04:59:32.685Z,0
2022-08-31T05:04:34.351Z,0
2022-08-31T05:09:35.990Z,0
2022-08-31T05:14:38.229Z,0
2022-08-31T05:19:42.164Z,0
2022-08-31T05:24:44.216Z,0
2022-08-31T05:29:45.976Z,0
2022-08-31T05:34:49.112Z,0
2022-08-31T05:39:50.834Z,1.39
2022-08-31T05:44:52.563Z,1.39
2022-08-31T05:49:54.108Z,0
2022-08-31T05:54:55.787Z,0
2022-08-31T05:59:59.897Z,0
2022-08-31T06:05:01.982Z,0
2022-08-31T06:10:03.994Z,0
2022-08-31T06:25:18.732Z,0.85
2022-08-31T06:30:20.459Z,0.85
2022-08-31T06:35:22.368Z,1.6
2022-08-31T06:40:25.389Z,1.6
2022-08-31T06:45:27.189Z,1.85
2022-08-31T06:50:29.097Z,1.85
2022-08-31T06:55:30.750Z,0
2022-08-31T07:00:33.230Z,0
2022-08-31T07:05:37.836Z,1.11
2022-08-31T07:10:39.978Z,1.11
2022-08-31T07:15:42.068Z,1.4
2022-08-31T07:20:43.898Z,1.56
2022-08-31T07:25:46.608Z,1.56
2022-08-31T07:30:48.845Z,2.61
2022-08-31T07:35:50.693Z,2.61
2022-08-31T07:40:52.896Z,2.17
2022-08-31T07:45:56.167Z,2.17
2022-08-31T07:50:58.752Z,2.92
2022-08-31T07:56:00.508Z,2.92
2022-08-31T08:01:02.365Z,1.93
2022-08-31T08:06:04.415Z,1.93
2022-08-31T08:11:06.487Z,0
2022-08-31T08:16:08.521Z,0
2022-08-31T08:21:10.491Z,1.46
2022-08-31T08:31:19.849Z,3.43
2022-08-31T08:36:21.769Z,1.22
2022-08-31T08:41:24.269Z,1.22
2022-08-31T08:51:38.533Z,2.13
2022-08-31T08:56:40.479Z,2.31
2022-08-31T09:01:45.053Z,2.31
2022-08-31T09:06:55.491Z,2.11
2022-08-31T09:12:02.632Z,2.11
2022-08-31T09:17:09.171Z,2.32
2022-08-31T09:22:10.848Z,2.32
2022-08-31T09:27:13.446Z,3.4
2022-08-31T09:32:17.067Z,3.4
2022-08-31T09:37:20.372Z,1.91
2022-08-31T09:42:28.650Z,1.91
2022-08-31T09:47:35.694Z,3.88
2022-08-31T09:52:37.819Z,0
2022-08-31T09:57:43.329Z,0
2022-08-31T10:02:45.556Z,1.6
2022-08-31T10:07:50.975Z,1.6
2022-08-31T10:12:54.781Z,4.6
2022-08-31T10:17:58.570Z,4.6
2022-08-31T10:28:09.185Z,2.93
2022-08-31T10:33:14.177Z,1.58
2022-08-31T10:38:21.270Z,1.58
2022-08-31T10:48:28.350Z,1.17
2022-08-31T10:53:41.104Z,2.98
2022-08-31T10:58:49.399Z,0.79
2022-08-31T11:09:01.765Z,1.33
2022-08-31T11:24:38.471Z,2.23
2022-08-31T11:29:43.948Z,0
2022-08-31T11:34:47.271Z,0
2022-08-31T11:39:48.833Z,3.92
2022-08-31T11:45:00.829Z,3.92
2022-08-31T11:50:06.100Z,2.27
2022-08-31T11:55:12.902Z,2.27
2022-08-31T12:00:18.359Z,2.19
2022-08-31T12:10:32.683Z,0
2022-08-31T12:20:48.597Z,0
2022-08-31T12:25:54.964Z,0
2022-08-31T12:30:58.619Z,0
2022-08-31T12:41:10.436Z,2.58
2022-08-31T12:56:33.431Z,2.58
2022-08-31T13:01:40.055Z,1.33
2022-08-31T13:06:42.293Z,1.33
2022-08-31T13:16:51.407Z,1.52
2022-08-31T13:21:55.217Z,1.07
2022-08-31T13:27:03.202Z,1.07
2022-08-31T13:32:05.119Z,1.24
2022-08-31T13:37:06.891Z,1.24
2022-08-31T13:42:10.026Z,1.49
2022-08-31T13:47:16.095Z,1.49
2022-08-31T13:52:20.480Z,0
2022-08-31T13:57:23.747Z,0
2022-08-31T14:12:46.624Z,2.01
2022-08-31T14:22:55.489Z,3.47
2022-08-31T14:27:57.144Z,0.88
2022-08-31T14:32:58.933Z,0.88
2022-08-31T14:38:00.549Z,1.46
2022-08-31T14:43:02.616Z,1.46
2022-08-31T14:48:04.430Z,3.95
2022-08-31T14:53:06.293Z,3.95
2022-08-31T14:58:11.738Z,2.18
2022-08-31T15:03:14.033Z,2.18
2022-08-31T15:13:34.288Z,3.14
2022-08-31T15:18:36.230Z,3.14
2022-08-31T15:23:38.372Z,1.05
2022-08-31T15:28:41.453Z,1.05
2022-08-31T15:33:43.150Z,0.86
2022-08-31T15:38:45.391Z,0.86
2022-08-31T15:43:47.168Z,1.76
2022-08-31T15:48:48.865Z,1.76
2022-08-31T15:58:57.838Z,1.39
2022-08-31T16:04:00.497Z,0
2022-08-31T16:09:02.503Z,0
2022-08-31T16:14:04.471Z,0
2022-08-31T16:19:06.833Z,0
2022-08-31T16:24:08.891Z,0
2022-08-31T16:29:12.743Z,0
2022-08-31T16:34:14.571Z,0
2022-08-31T16:39:16.566Z,0
2022-08-31T16:44:21.567Z,0
2022-08-31T16:49:23.377Z,0
2022-08-31T16:54:25.170Z,0
2022-08-31T16:59:28.315Z,0
2022-08-31T17:09:35.795Z,0
2022-08-31T17:14:38.684Z,0
2022-08-31T17:19:44.155Z,0
2022-08-31T17:24:46.088Z,0
2022-08-31T17:29:48.974Z,0
2022-08-31T17:34:52.098Z,1.72
2022-08-31T17:39:54.857Z,1.72
2022-08-31T17:44:56.891Z,0
2022-08-31T17:49:58.782Z,0
2022-08-31T17:55:00.623Z,0
2022-08-31T18:00:04.764Z,0
2022-08-31T18:10:12.945Z,0
2022-08-31T18:15:14.888Z,0
2022-08-31T18:20:16.827Z,0
2022-08-31T18:25:18.574Z,1.53
2022-08-31T18:30:20.440Z,1.53
2022-08-31T18:35:22.414Z,0
2022-08-31T18:40:24.920Z,0
2022-08-31T18:45:26.919Z,1.38
2022-08-31T18:55:37.034Z,0.99
2022-08-31T19:00:40.106Z,0
2022-08-31T19:05:42.365Z,0
2022-08-31T19:10:44.764Z,1.48
2022-08-31T19:15:47.628Z,1.48
2022-08-31T19:20:49.899Z,0
2022-08-31T19:25:52.521Z,0
2022-08-31T19:30:55.081Z,2.49
2022-08-31T19:36:05.737Z,2.49
2022-08-31T19:46:14.255Z,0.89
2022-08-31T19:51:18.084Z,0.77
2022-08-31T19:56:21.907Z,1.47
2022-08-31T20:01:25.599Z,1.47
2022-08-31T20:06:27.670Z,0
2022-08-31T20:11:30.260Z,0
2022-08-31T20:16:35.726Z,0
2022-08-31T20:21:38.392Z,0
2022-08-31T20:31:49.525Z,0
2022-08-31T20:36:51.811Z,0
2022-08-31T20:41:55.077Z,0
2022-08-31T20:46:58.058Z,0
2022-08-31T20:52:03.397Z,0
2022-08-31T20:57:06.397Z,0
2022-08-31T21:02:08.965Z,0
2022-08-31T21:07:11.181Z,0
2022-08-31T21:12:21.810Z,0
2022-08-31T21:17:23.492Z,0
2022-08-31T21:22:25.247Z,0
2022-08-31T21:27:26.926Z,0
2022-08-31T21:32:28.675Z,0
2022-08-31T21:37:30.426Z,0
2022-08-31T21:42:32.266Z,0
